Main page
Satellite images 15-day forecastsClimateMarine weather Cyclones Lightning AirportsFAQ Newsletter About
Weather : Europe Africa North America South America Asia Australia-Oceania Others
Languages Contact

Podgorica, Montenegro

latitude: 42-26N, longitude: 019-17E, elevation: 53 m


METAR: LYPG 011030Z 15005KT 080V210 CAVOK 16/04 Q1023 NOSIG
TAF: LYPG 010500Z 0106/0206 36009KT CAVOK TX19/0113Z TN06/0205Z BECMG 0109/0111 16005KT

Time: 11:44 (10:44 UTC)

Current weather observation

The report was made 14 minutes ago, at 10:30 UTC
Wind 5 kt from the South/Southeast, varying between East and South/Southwest
Temperature 16°C
Humidity 45%
Pressure 1023 hPa
Visibility 10 km or more
no clouds below 1500 m and no cumulonimbus

Change units

Forecast

The report was made 5 hours and 44 minutes ago, at 05:00 UTC
Forecast valid from 01 at 06 UTC to 02 at 06 UTC
Wind 9 kt from the North
Visibility 10 km or more
no clouds below 1500 m and no cumulonimbus
Becoming
from 01 at 09 UTC to 01 at 11 UTC
Wind 5 kt from the South/Southeast
The information on this site is subject to a disclaimer
Weather : Europe Africa North America South America Asia Australia-Oceania Others
Satellite images 15-day forecastsClimateMarine weather Cyclones Lightning AirportsFAQ Languages Contact Newsletter About